createdAt,value
2024-02-29T00:02:17.669Z,98088.00
2024-02-29T00:06:19.243Z,98088.00
2024-02-29T00:10:20.712Z,98099.00
2024-02-29T00:14:21.780Z,98092.00
2024-02-29T00:18:22.896Z,98088.00
2024-02-29T00:22:24.157Z,98090.00
2024-02-29T00:26:25.393Z,98090.00
2024-02-29T00:30:26.470Z,98084.00
2024-02-29T00:34:30.748Z,98073.00
2024-02-29T00:38:31.934Z,98067.00
2024-02-29T00:42:33.318Z,98063.00
2024-02-29T00:46:38.963Z,98059.00
2024-02-29T00:50:39.975Z,98046.00
2024-02-29T00:54:41.299Z,98054.00
2024-02-29T00:58:42.432Z,98066.00
2024-02-29T01:02:43.876Z,98056.00
2024-02-29T01:06:45.084Z,98054.00
2024-02-29T01:10:47.657Z,98042.00
2024-02-29T01:14:48.791Z,98029.00
2024-02-29T01:18:49.986Z,98027.00
2024-02-29T01:22:51.619Z,98028.00
2024-02-29T01:26:52.620Z,98032.00
2024-02-29T01:30:53.668Z,98027.00
2024-02-29T01:34:54.678Z,98030.00
2024-02-29T01:38:55.719Z,98012.00
2024-02-29T01:42:56.752Z,97996.00
2024-02-29T01:46:57.890Z,97998.00
2024-02-29T01:50:59.925Z,97987.00
2024-02-29T01:55:03.462Z,97976.00
2024-02-29T01:59:05.683Z,97986.00
2024-02-29T02:03:06.802Z,97974.00
2024-02-29T02:07:09.676Z,97978.00
2024-02-29T02:11:10.946Z,97979.00
2024-02-29T02:15:12.663Z,97977.00
2024-02-29T02:19:14.020Z,97976.00
2024-02-29T02:23:15.022Z,97938.00
2024-02-29T02:27:16.193Z,97962.00
2024-02-29T02:31:17.272Z,97959.00
2024-02-29T02:35:18.441Z,97958.00
2024-02-29T02:39:19.549Z,97947.00
2024-02-29T02:43:20.700Z,97946.00
2024-02-29T02:47:21.759Z,97946.00
2024-02-29T02:51:27.074Z,97928.00
2024-02-29T02:55:28.142Z,97923.00
2024-02-29T02:59:29.160Z,97924.00
2024-02-29T03:03:30.241Z,97913.00
2024-02-29T03:07:31.373Z,97914.00
2024-02-29T03:11:32.578Z,97902.00
2024-02-29T03:15:33.724Z,97898.00
2024-02-29T03:19:34.693Z,97893.00
2024-02-29T03:23:35.868Z,97888.00
2024-02-29T03:27:37.032Z,97879.00
2024-02-29T03:31:38.389Z,97877.00
2024-02-29T03:35:39.533Z,97867.00
2024-02-29T03:39:40.735Z,97874.00
2024-02-29T03:43:41.729Z,97861.00
2024-02-29T03:47:42.880Z,97867.00
2024-02-29T03:51:43.918Z,97862.00
2024-02-29T03:55:48.521Z,97862.00
2024-02-29T03:59:49.532Z,97865.00
2024-02-29T04:03:50.717Z,97853.00
2024-02-29T04:07:53.630Z,97861.00
2024-02-29T04:11:54.786Z,97864.00
2024-02-29T04:15:55.976Z,97856.00
2024-02-29T04:19:56.952Z,97861.00
2024-02-29T04:23:58.179Z,97857.00
2024-02-29T04:27:59.445Z,97851.00
2024-02-29T04:32:00.588Z,97854.00
2024-02-29T04:36:02.059Z,97859.00
2024-02-29T04:40:05.615Z,97855.00
2024-02-29T04:44:08.136Z,97844.00
2024-02-29T04:48:09.266Z,97839.00
2024-02-29T04:52:10.667Z,97831.00
2024-02-29T04:56:11.861Z,97830.00
2024-02-29T05:00:13.662Z,97831.00
2024-02-29T05:04:15.549Z,97826.00
2024-02-29T05:08:16.779Z,97820.00
2024-02-29T05:12:18.275Z,97815.00
2024-02-29T05:16:21.402Z,97814.00
2024-02-29T05:20:22.624Z,97800.00
2024-02-29T05:24:23.791Z,97807.00
2024-02-29T05:28:24.917Z,97797.00
2024-02-29T05:32:25.949Z,97789.00
2024-02-29T05:36:27.732Z,97792.00
2024-02-29T05:40:28.933Z,97793.00
2024-02-29T05:44:31.575Z,97783.00
2024-02-29T05:48:34.661Z,97784.00
2024-02-29T05:52:36.827Z,97779.00
2024-02-29T05:56:38.062Z,97784.00
2024-02-29T06:00:39.159Z,97781.00
2024-02-29T06:04:40.616Z,97780.00
2024-02-29T06:08:41.693Z,97782.00
2024-02-29T06:12:43.297Z,97780.00
2024-02-29T06:16:44.487Z,97784.00
2024-02-29T06:20:45.458Z,97784.00
2024-02-29T06:24:46.593Z,97786.00
2024-02-29T06:28:47.676Z,97790.00
2024-02-29T06:32:48.842Z,97787.00
2024-02-29T06:36:50.079Z,97789.00
2024-02-29T06:40:51.179Z,97789.00
2024-02-29T06:44:53.179Z,97794.00
2024-02-29T06:48:54.457Z,97789.00
2024-02-29T06:52:58.053Z,97787.00
2024-02-29T06:56:59.380Z,97792.00
2024-02-29T07:01:01.646Z,97781.00
2024-02-29T07:05:03.294Z,97769.00
2024-02-29T07:09:04.359Z,97765.00
2024-02-29T07:13:05.560Z,97759.00
2024-02-29T07:17:06.879Z,97747.00
2024-02-29T07:21:07.888Z,97745.00
2024-02-29T07:25:09.595Z,97744.00
2024-02-29T07:29:10.796Z,97737.00
2024-02-29T07:33:11.779Z,97745.00
2024-02-29T07:37:13.359Z,97740.00
2024-02-29T07:41:14.917Z,97724.00
2024-02-29T07:45:19.293Z,97731.00
2024-02-29T07:49:19.462Z,97739.00
2024-02-29T07:53:20.564Z,97732.00
2024-02-29T07:57:21.759Z,97738.00
2024-02-29T08:01:22.937Z,97739.00
2024-02-29T08:05:25.146Z,97736.00
2024-02-29T08:09:26.286Z,97739.00
2024-02-29T08:13:27.359Z,97734.00
2024-02-29T08:17:29.141Z,97732.00
2024-02-29T08:21:32.153Z,97729.00
2024-02-29T08:25:33.139Z,97733.00
2024-02-29T08:29:34.139Z,97727.00
2024-02-29T08:33:35.204Z,97723.00
2024-02-29T08:37:36.487Z,97722.00
2024-02-29T08:41:37.899Z,97712.00
2024-02-29T08:45:39.365Z,97722.00
2024-02-29T08:49:42.514Z,97715.00
2024-02-29T08:53:43.637Z,97711.00
2024-02-29T08:57:45.020Z,97719.00
2024-02-29T09:01:46.689Z,97706.00
2024-02-29T09:05:47.994Z,97706.00
2024-02-29T09:09:51.124Z,97710.00
2024-02-29T09:13:52.454Z,97710.00
2024-02-29T09:17:53.711Z,97702.00
2024-02-29T09:21:54.856Z,97696.00
2024-02-29T09:25:56.081Z,97695.00
2024-02-29T09:29:58.799Z,97692.00
2024-02-29T09:34:00.244Z,97698.00
2024-02-29T09:38:01.780Z,97695.00
2024-02-29T09:46:10.286Z,97688.00
2024-02-29T09:50:11.999Z,97668.00
2024-02-29T09:54:18.017Z,97664.00
2024-02-29T09:58:21.332Z,97670.00
2024-02-29T10:02:23.777Z,97661.00
2024-02-29T10:06:24.800Z,97660.00
2024-02-29T10:10:26.048Z,97665.00
2024-02-29T10:14:27.148Z,97663.00
2024-02-29T10:18:33.930Z,97654.00
2024-02-29T10:22:35.586Z,97655.00
2024-02-29T10:26:36.844Z,97648.00
2024-02-29T10:30:37.897Z,97650.00
2024-02-29T10:34:40.547Z,97634.00
2024-02-29T10:38:41.891Z,97637.00
2024-02-29T10:42:43.640Z,97640.00
2024-02-29T10:46:48.116Z,97637.00
2024-02-29T10:51:02.009Z,97618.00
2024-02-29T10:55:06.452Z,97613.00
2024-02-29T10:59:08.400Z,97605.00
2024-02-29T11:03:12.801Z,97598.00
2024-02-29T11:07:14.535Z,97597.00
2024-02-29T11:11:27.449Z,97602.00
2024-02-29T11:15:28.756Z,97581.00
2024-02-29T11:19:30.161Z,97579.00
2024-02-29T11:23:38.538Z,97568.00
2024-02-29T11:27:48.531Z,97557.00
2024-02-29T11:31:57.319Z,97552.00
2024-02-29T11:35:59.969Z,97554.00
2024-02-29T11:40:06.750Z,97533.00
2024-02-29T11:44:08.166Z,97533.00
2024-02-29T11:48:09.262Z,97527.00
2024-02-29T11:52:10.948Z,97514.00
2024-02-29T11:56:16.004Z,97510.00
2024-02-29T12:00:16.635Z,97497.00
2024-02-29T12:04:17.838Z,97492.00
2024-02-29T12:08:19.381Z,97482.00
2024-02-29T12:12:21.331Z,97467.00
2024-02-29T12:16:22.810Z,97466.00
2024-02-29T12:20:23.970Z,97462.00
2024-02-29T12:24:26.592Z,97457.00
2024-02-29T12:28:30.854Z,97450.00
2024-02-29T12:32:32.378Z,97448.00
2024-02-29T12:36:33.548Z,97437.00
2024-02-29T12:40:34.859Z,97440.00
2024-02-29T12:44:37.632Z,97441.00
2024-02-29T12:48:38.848Z,97426.00
2024-02-29T12:52:39.938Z,97421.00
2024-02-29T12:56:41.179Z,97421.00
2024-02-29T13:00:42.863Z,97410.00
2024-02-29T13:04:44.155Z,97400.00
2024-02-29T13:08:45.628Z,97390.00
2024-02-29T13:12:51.808Z,97385.00
2024-02-29T13:16:50.027Z,97376.00
2024-02-29T13:20:51.345Z,97367.00
2024-02-29T13:24:52.805Z,97353.00
2024-02-29T13:28:54.038Z,97350.00
2024-02-29T13:32:55.082Z,97354.00
2024-02-29T13:36:56.302Z,97346.00
2024-02-29T13:40:57.260Z,97337.00
2024-02-29T13:44:58.352Z,97319.00
2024-02-29T13:49:20.311Z,97320.00
2024-02-29T13:53:02.497Z,97296.00
2024-02-29T13:57:03.751Z,97295.00
2024-02-29T14:01:08.481Z,97287.00
2024-02-29T14:05:08.330Z,97277.00
2024-02-29T14:09:11.484Z,97266.00
2024-02-29T14:13:12.663Z,97267.00
2024-02-29T14:17:13.851Z,97259.00
2024-02-29T14:21:19.521Z,97238.00
2024-02-29T14:25:22.577Z,97242.00
2024-02-29T14:29:23.571Z,97237.00
2024-02-29T14:33:24.767Z,97237.00
2024-02-29T14:37:26.162Z,97221.00
2024-02-29T14:41:29.183Z,97212.00
2024-02-29T14:45:30.423Z,97200.00
2024-02-29T14:49:31.809Z,97197.00
2024-02-29T14:53:33.694Z,97189.00
2024-02-29T14:57:35.060Z,97191.00
2024-02-29T15:01:36.160Z,97185.00
2024-02-29T15:05:37.468Z,97179.00
2024-02-29T15:09:39.374Z,97166.00
2024-02-29T15:13:40.381Z,97171.00
2024-02-29T15:17:41.901Z,97160.00
2024-02-29T15:21:44.860Z,97164.00
2024-02-29T15:25:47.553Z,97153.00
2024-02-29T15:29:49.735Z,97153.00
2024-02-29T15:33:50.830Z,97141.00
2024-02-29T15:37:52.008Z,97145.00
2024-02-29T15:41:53.237Z,97146.00
2024-02-29T15:45:54.521Z,97145.00
2024-02-29T15:49:56.289Z,97125.00
2024-02-29T15:53:57.618Z,97125.00
2024-02-29T15:57:59.076Z,97122.00
2024-02-29T16:02:00.222Z,97128.00
2024-02-29T16:06:01.557Z,97126.00
2024-02-29T16:10:02.855Z,97126.00
2024-02-29T16:14:04.440Z,96993.00
2024-02-29T16:18:06.633Z,97104.00
2024-02-29T16:22:07.683Z,97110.00
2024-02-29T16:26:08.927Z,97090.00
2024-02-29T16:30:10.398Z,97096.00
2024-02-29T16:34:12.073Z,97088.00
2024-02-29T16:38:13.285Z,97082.00
2024-02-29T16:42:14.519Z,97081.00
2024-02-29T16:46:17.387Z,97071.00
2024-02-29T16:50:18.656Z,97084.00
2024-02-29T16:54:20.155Z,97065.00
2024-02-29T16:58:21.554Z,97067.00
2024-02-29T17:02:22.744Z,97072.00
2024-02-29T17:06:24.241Z,97070.00
2024-02-29T17:10:25.354Z,97073.00
2024-02-29T17:14:26.531Z,97072.00
2024-02-29T17:18:27.873Z,97068.00
2024-02-29T17:22:29.209Z,97072.00
2024-02-29T17:26:31.396Z,97070.00
2024-02-29T17:30:33.089Z,97070.00
2024-02-29T17:34:34.100Z,97061.00
2024-02-29T17:38:35.327Z,97068.00
2024-02-29T17:42:36.564Z,96896.00
2024-02-29T17:46:37.690Z,97056.00
2024-02-29T17:50:39.753Z,97052.00
2024-02-29T17:54:40.932Z,97045.00
2024-02-29T17:58:42.071Z,97042.00
2024-02-29T18:02:43.289Z,97042.00
2024-02-29T18:06:44.353Z,97041.00
2024-02-29T18:10:45.377Z,97033.00
2024-02-29T18:14:46.420Z,97038.00
2024-02-29T18:18:47.520Z,97038.00
2024-02-29T18:22:49.647Z,97029.00
2024-02-29T18:26:50.693Z,97031.00
2024-02-29T18:30:51.745Z,97029.00
2024-02-29T18:34:52.992Z,97027.00
2024-02-29T18:38:55.352Z,97017.00
2024-02-29T18:42:56.500Z,97016.00
2024-02-29T18:47:00.081Z,97016.00
2024-02-29T18:51:01.333Z,97010.00
2024-02-29T18:55:02.550Z,97016.00
2024-02-29T18:59:03.849Z,96992.00
2024-02-29T19:03:04.886Z,96998.00
2024-02-29T19:07:06.139Z,96988.00
2024-02-29T19:11:07.385Z,96993.00
2024-02-29T19:15:09.804Z,96990.00
2024-02-29T19:19:13.227Z,96984.00
2024-02-29T19:23:14.382Z,96988.00
2024-02-29T19:27:15.529Z,97016.00
2024-02-29T19:31:16.602Z,96964.00
2024-02-29T19:35:17.719Z,96962.00
2024-02-29T19:39:18.890Z,96958.00
2024-02-29T19:43:21.986Z,96951.00
2024-02-29T19:47:23.515Z,96947.00
2024-02-29T19:51:24.675Z,96938.00
2024-02-29T19:55:25.891Z,96938.00
2024-02-29T19:59:27.060Z,96928.00
2024-02-29T20:03:30.038Z,96926.00
2024-02-29T20:07:31.127Z,96915.00
2024-02-29T20:11:32.220Z,96922.00
2024-02-29T20:15:33.272Z,96927.00
2024-02-29T20:19:36.458Z,96922.00
2024-02-29T20:23:37.292Z,96923.00
2024-02-29T20:27:38.400Z,96921.00
2024-02-29T20:31:39.531Z,96921.00
2024-02-29T20:35:40.640Z,96921.00
2024-02-29T20:39:41.653Z,96915.00
2024-02-29T20:43:42.808Z,96917.00
2024-02-29T20:47:45.068Z,96921.00
2024-02-29T20:51:46.162Z,96901.00
2024-02-29T20:55:47.179Z,96908.00
2024-02-29T20:59:48.272Z,96901.00
2024-02-29T21:03:50.101Z,96891.00
2024-02-29T21:07:51.152Z,96890.00
2024-02-29T21:16:03.330Z,96886.00
2024-02-29T21:20:05.261Z,96877.00
2024-02-29T21:24:06.477Z,96879.00
2024-02-29T21:28:07.638Z,96880.00
2024-02-29T21:32:08.852Z,96881.00
2024-02-29T21:36:10.826Z,96871.00
2024-02-29T21:40:12.565Z,96879.00
2024-02-29T21:44:13.522Z,96880.00
2024-02-29T21:48:14.633Z,96874.00
2024-02-29T21:52:16.014Z,96872.00
2024-02-29T21:56:17.106Z,96870.00
2024-02-29T22:00:18.115Z,96864.00
2024-02-29T22:04:19.410Z,96874.00
2024-02-29T22:08:21.124Z,96862.00
2024-02-29T22:12:22.265Z,96854.00
2024-02-29T22:16:23.313Z,96841.00
2024-02-29T22:20:24.364Z,96848.00
2024-02-29T22:24:25.371Z,96843.00
2024-02-29T22:28:26.435Z,96844.00
2024-02-29T22:32:27.482Z,96843.00
2024-02-29T22:36:28.567Z,96850.00
2024-02-29T22:40:30.001Z,96848.00
2024-02-29T22:44:33.335Z,96850.00
2024-02-29T22:48:34.876Z,96846.00
2024-02-29T22:52:36.079Z,96845.00
2024-02-29T22:56:37.235Z,96843.00
2024-02-29T23:00:39.280Z,96839.00
2024-02-29T23:04:40.257Z,96836.00
2024-02-29T23:08:41.845Z,96831.00
2024-02-29T23:12:43.648Z,96826.00
2024-02-29T23:16:44.763Z,96815.00
2024-02-29T23:20:45.977Z,96814.00
2024-02-29T23:24:47.405Z,96812.00
2024-02-29T23:28:48.655Z,96819.00
2024-02-29T23:32:49.991Z,96805.00
2024-02-29T23:36:51.108Z,96803.00
2024-02-29T23:40:52.252Z,96797.00
2024-02-29T23:44:53.372Z,96797.00
2024-02-29T23:48:54.536Z,96788.00
2024-02-29T23:52:55.606Z,96786.00
2024-02-29T23:56:57.727Z,96788.00
